X  Zatvori METAR podaci zračne luke        LDPL Pula
Temperatura
33°C Temperatura
18°C Točka rosišta
41% Vlaga



Vjetar
15 KM/S
9 MPS
4 M/S
8 Čvorovi



110°
IJI
Trenutna situacija

Mostly Sunny Pretežno sunčano
Tlak zraka 1013 (hPa) - 29.93 (inHg)
Vidljivost 6 (milje) - 10 (km)
Zračna luka
Kôd zračne luke LDPL

Lokacija: Pula
Udaljenost: 39 (km)

Metar:
METAR LDPL 170900Z 11008KT 090V150 CAVOK 33/18 Q1014 NOSIG

Vrijeme: 17-07-2024 11:00 CEST